Giese, Minnesota
Current Conditions -  °F | °C
As of 1:26 PM on Friday 21 Nov 2014 (Local Time) from K04W Reporting Station
Broken Clouds Broken Clouds  
Wind Chill: 13°   Ceiling: 10000
Heat Index: 27°   Visibility: 10mi
Dew Point: 16°   Wind: 20mph
Humidity: 64%   Direction: 190°S
Pressure: 30.01"   Gusts: 24mph
Location:  46.2114°N, 92.9743°W
Report Text: K04W 211926Z AUTO 19017G21KT 10SM BKN100 M03/M09 A3001 RMK AO2
Loading
Personal Weather Stations






























Interactive Weather Map New forecast layout! Learn more

10-Day Weather Forecast

Advertisements
Track Severe Weather on mobile